Decoded Metar for KTOL (TOLEDO in OH, USA) (IATA:TOL) | Meteo·Mobile Aviation Weather
aviador You're here:

KTOL Decoded Metar

TOLEDO in OH, USA
Report Time2018-09-20 05:52:00
UTC Time2018-09-20 06:42:42
Flight Rules vfr VFR
WindCalm
Visibility9999 m
Phenomena:N/A
Clouds:N/A
Expected CloudBase > 800 ft AGL from Temp-Dew spread
CeilingNone
Temp18°C (ISA +4)
Dew Point16°C (88% RH)
QNH1018 hPa
Density Alt1,280 ft
Elevation689 ft
Report Wrong Elevation
Raw Report
KTOL 200552Z 00000KT 10SM CLR 18/16 A3005 RMK AO2 SLP171 T01830156
10211 20183 56007 $=

Extra information for KTOL:More info

Metar Taf Metar & Taf Last 4 Metars F.Rules Stats Wind Profile Meteogram Temp Stats Airport Information Weather charts Add Link Nearby VenuesMetar ALERT Operation Metar Decoded Social comments

AIRNAV info for KTOL